sensor_id;sensor_type;location;lat;lon;timestamp;P1;durP1;ratioP1;P2;durP2;ratioP2
13866;SDS011;7003;46.982;15.248;2023-04-05T00:01:02;1.27;;;1.17;;
13866;SDS011;7003;46.982;15.248;2023-04-05T00:03:33;1.40;;;1.30;;
13866;SDS011;7003;46.982;15.248;2023-04-05T00:06:04;2.83;;;2.43;;
13866;SDS011;7003;46.982;15.248;2023-04-05T00:08:37;4.13;;;2.40;;
13866;SDS011;7003;46.982;15.248;2023-04-05T00:11:07;4.80;;;2.10;;
13866;SDS011;7003;46.982;15.248;2023-04-05T00:13:39;1.20;;;1.10;;
13866;SDS011;7003;46.982;15.248;2023-04-05T00:16:09;1.70;;;1.60;;
13866;SDS011;7003;46.982;15.248;2023-04-05T00:18:55;4.13;;;1.57;;
13866;SDS011;7003;46.982;15.248;2023-04-05T00:21:43;1.10;;;1.10;;
13866;SDS011;7003;46.982;15.248;2023-04-05T00:24:15;2.57;;;1.93;;
13866;SDS011;7003;46.982;15.248;2023-04-05T00:26:45;7.00;;;2.27;;
13866;SDS011;7003;46.982;15.248;2023-04-05T00:29:16;2.83;;;2.17;;
13866;SDS011;7003;46.982;15.248;2023-04-05T00:31:48;2.90;;;2.63;;
13866;SDS011;7003;46.982;15.248;2023-04-05T00:34:18;1.57;;;1.47;;
13866;SDS011;7003;46.982;15.248;2023-04-05T00:36:48;4.17;;;2.33;;
13866;SDS011;7003;46.982;15.248;2023-04-05T00:39:20;4.50;;;1.47;;
13866;SDS011;7003;46.982;15.248;2023-04-05T00:41:52;2.37;;;2.13;;
13866;SDS011;7003;46.982;15.248;2023-04-05T00:44:24;2.80;;;2.53;;
13866;SDS011;7003;46.982;15.248;2023-04-05T00:46:56;2.97;;;2.27;;
13866;SDS011;7003;46.982;15.248;2023-04-05T00:49:27;1.73;;;1.63;;
13866;SDS011;7003;46.982;15.248;2023-04-05T00:52:05;2.50;;;2.23;;
13866;SDS011;7003;46.982;15.248;2023-04-05T00:54:40;2.57;;;1.63;;
13866;SDS011;7003;46.982;15.248;2023-04-05T00:57:11;2.43;;;1.83;;
13866;SDS011;7003;46.982;15.248;2023-04-05T00:59:41;2.63;;;1.77;;
13866;SDS011;7003;46.982;15.248;2023-04-05T01:02:10;6.00;;;1.63;;
13866;SDS011;7003;46.982;15.248;2023-04-05T01:04:48;2.83;;;1.73;;
13866;SDS011;7003;46.982;15.248;2023-04-05T01:07:27;2.43;;;2.23;;
13866;SDS011;7003;46.982;15.248;2023-04-05T01:10:00;3.67;;;2.67;;
13866;SDS011;7003;46.982;15.248;2023-04-05T01:12:32;4.53;;;2.57;;
13866;SDS011;7003;46.982;15.248;2023-04-05T01:15:02;2.10;;;1.90;;
13866;SDS011;7003;46.982;15.248;2023-04-05T01:17:33;2.80;;;2.30;;
13866;SDS011;7003;46.982;15.248;2023-04-05T01:20:06;2.23;;;2.03;;
13866;SDS011;7003;46.982;15.248;2023-04-05T01:22:41;3.50;;;2.77;;
13866;SDS011;7003;46.982;15.248;2023-04-05T01:25:36;9.30;;;2.33;;
13866;SDS011;7003;46.982;15.248;2023-04-05T01:28:43;2.73;;;2.47;;
13866;SDS011;7003;46.982;15.248;2023-04-05T01:31:26;3.63;;;2.90;;
13866;SDS011;7003;46.982;15.248;2023-04-05T01:33:58;2.87;;;2.23;;
13866;SDS011;7003;46.982;15.248;2023-04-05T01:36:35;4.30;;;2.27;;
13866;SDS011;7003;46.982;15.248;2023-04-05T01:39:10;3.00;;;2.57;;
13866;SDS011;7003;46.982;15.248;2023-04-05T01:41:45;9.90;;;2.77;;
13866;SDS011;7003;46.982;15.248;2023-04-05T01:44:12;6.90;;;2.53;;
13866;SDS011;7003;46.982;15.248;2023-04-05T01:46:41;2.43;;;2.23;;
13866;SDS011;7003;46.982;15.248;2023-04-05T01:49:08;3.90;;;2.63;;
13866;SDS011;7003;46.982;15.248;2023-04-05T01:51:38;3.57;;;2.07;;
13866;SDS011;7003;46.982;15.248;2023-04-05T01:54:09;13.40;;;3.13;;
13866;SDS011;7003;46.982;15.248;2023-04-05T01:56:37;3.37;;;2.80;;
13866;SDS011;7003;46.982;15.248;2023-04-05T01:59:04;5.07;;;2.50;;
13866;SDS011;7003;46.982;15.248;2023-04-05T02:01:31;2.13;;;1.93;;
13866;SDS011;7003;46.982;15.248;2023-04-05T02:04:01;2.67;;;2.47;;
13866;SDS011;7003;46.982;15.248;2023-04-05T02:06:29;2.93;;;2.27;;
13866;SDS011;7003;46.982;15.248;2023-04-05T02:08:56;4.30;;;2.60;;
13866;SDS011;7003;46.982;15.248;2023-04-05T02:11:42;3.30;;;2.03;;
13866;SDS011;7003;46.982;15.248;2023-04-05T02:14:27;10.93;;;3.53;;
13866;SDS011;7003;46.982;15.248;2023-04-05T02:17:12;2.67;;;2.40;;
13866;SDS011;7003;46.982;15.248;2023-04-05T02:20:01;3.43;;;3.00;;
13866;SDS011;7003;46.982;15.248;2023-04-05T02:22:50;3.70;;;2.87;;
13866;SDS011;7003;46.982;15.248;2023-04-05T02:25:36;3.97;;;2.43;;
13866;SDS011;7003;46.982;15.248;2023-04-05T02:28:21;2.27;;;2.07;;
13866;SDS011;7003;46.982;15.248;2023-04-05T02:31:07;1.73;;;1.60;;
13866;SDS011;7003;46.982;15.248;2023-04-05T02:33:55;2.27;;;2.10;;
13866;SDS011;7003;46.982;15.248;2023-04-05T02:36:41;2.33;;;2.13;;
13866;SDS011;7003;46.982;15.248;2023-04-05T02:39:11;4.30;;;2.53;;
13866;SDS011;7003;46.982;15.248;2023-04-05T02:41:41;2.47;;;2.03;;
13866;SDS011;7003;46.982;15.248;2023-04-05T02:44:10;2.97;;;2.57;;
13866;SDS011;7003;46.982;15.248;2023-04-05T02:46:38;4.87;;;3.27;;
13866;SDS011;7003;46.982;15.248;2023-04-05T02:49:05;2.07;;;1.93;;
13866;SDS011;7003;46.982;15.248;2023-04-05T02:51:32;4.30;;;3.90;;
13866;SDS011;7003;46.982;15.248;2023-04-05T02:54:02;2.07;;;1.90;;
13866;SDS011;7003;46.982;15.248;2023-04-05T02:56:32;4.63;;;2.63;;
13866;SDS011;7003;46.982;15.248;2023-04-05T02:59:01;3.67;;;2.20;;
13866;SDS011;7003;46.982;15.248;2023-04-05T03:01:28;2.40;;;2.30;;
13866;SDS011;7003;46.982;15.248;2023-04-05T03:03:56;1.57;;;1.47;;
13866;SDS011;7003;46.982;15.248;2023-04-05T03:06:23;2.30;;;1.97;;
13866;SDS011;7003;46.982;15.248;2023-04-05T03:08:50;2.60;;;1.83;;
13866;SDS011;7003;46.982;15.248;2023-04-05T03:11:19;2.83;;;2.53;;
13866;SDS011;7003;46.982;15.248;2023-04-05T03:13:46;6.80;;;3.13;;
13866;SDS011;7003;46.982;15.248;2023-04-05T03:16:13;3.17;;;2.87;;
13866;SDS011;7003;46.982;15.248;2023-04-05T03:18:40;2.63;;;1.67;;
13866;SDS011;7003;46.982;15.248;2023-04-05T03:21:09;2.80;;;1.97;;
13866;SDS011;7003;46.982;15.248;2023-04-05T03:23:37;2.33;;;2.10;;
13866;SDS011;7003;46.982;15.248;2023-04-05T03:26:04;3.60;;;2.80;;
13866;SDS011;7003;46.982;15.248;2023-04-05T03:28:36;4.00;;;2.57;;
13866;SDS011;7003;46.982;15.248;2023-04-05T03:31:05;2.20;;;1.60;;
13866;SDS011;7003;46.982;15.248;2023-04-05T03:33:32;3.90;;;1.87;;
13866;SDS011;7003;46.982;15.248;2023-04-05T03:35:59;1.70;;;1.57;;
13866;SDS011;7003;46.982;15.248;2023-04-05T03:38:29;2.93;;;2.57;;
13866;SDS011;7003;46.982;15.248;2023-04-05T03:41:00;3.83;;;2.37;;
13866;SDS011;7003;46.982;15.248;2023-04-05T03:43:28;2.73;;;1.73;;
13866;SDS011;7003;46.982;15.248;2023-04-05T03:45:56;3.53;;;2.33;;
13866;SDS011;7003;46.982;15.248;2023-04-05T03:48:24;2.03;;;1.93;;
13866;SDS011;7003;46.982;15.248;2023-04-05T03:50:51;2.33;;;2.13;;
13866;SDS011;7003;46.982;15.248;2023-04-05T03:53:18;1.83;;;1.70;;
13866;SDS011;7003;46.982;15.248;2023-04-05T03:55:45;3.27;;;2.33;;
13866;SDS011;7003;46.982;15.248;2023-04-05T03:58:16;4.93;;;3.23;;
13866;SDS011;7003;46.982;15.248;2023-04-05T04:00:44;4.90;;;2.80;;
13866;SDS011;7003;46.982;15.248;2023-04-05T04:03:13;2.30;;;2.00;;
13866;SDS011;7003;46.982;15.248;2023-04-05T04:05:41;2.07;;;1.80;;
13866;SDS011;7003;46.982;15.248;2023-04-05T04:08:08;2.03;;;1.83;;
13866;SDS011;7003;46.982;15.248;2023-04-05T04:10:35;4.40;;;1.63;;
13866;SDS011;7003;46.982;15.248;2023-04-05T04:13:03;2.63;;;2.30;;
13866;SDS011;7003;46.982;15.248;2023-04-05T04:15:30;1.60;;;1.50;;
13866;SDS011;7003;46.982;15.248;2023-04-05T04:17:58;3.47;;;2.13;;
13866;SDS011;7003;46.982;15.248;2023-04-05T04:20:29;3.03;;;2.60;;
13866;SDS011;7003;46.982;15.248;2023-04-05T04:23:00;3.17;;;2.60;;
13866;SDS011;7003;46.982;15.248;2023-04-05T04:25:27;2.67;;;2.13;;
13866;SDS011;7003;46.982;15.248;2023-04-05T04:27:56;3.13;;;2.73;;
13866;SDS011;7003;46.982;15.248;2023-04-05T04:30:29;3.17;;;2.73;;
13866;SDS011;7003;46.982;15.248;2023-04-05T04:33:00;4.43;;;1.37;;
13866;SDS011;7003;46.982;15.248;2023-04-05T04:35:31;3.03;;;1.67;;
13866;SDS011;7003;46.982;15.248;2023-04-05T04:38:04;4.83;;;2.17;;
13866;SDS011;7003;46.982;15.248;2023-04-05T04:40:34;7.00;;;2.93;;
13866;SDS011;7003;46.982;15.248;2023-04-05T04:43:08;2.57;;;2.10;;
13866;SDS011;7003;46.982;15.248;2023-04-05T04:45:39;2.43;;;2.13;;
13866;SDS011;7003;46.982;15.248;2023-04-05T04:48:08;2.07;;;1.87;;
13866;SDS011;7003;46.982;15.248;2023-04-05T04:50:41;3.77;;;2.20;;
13866;SDS011;7003;46.982;15.248;2023-04-05T04:53:10;3.53;;;2.40;;
13866;SDS011;7003;46.982;15.248;2023-04-05T04:55:45;1.60;;;1.50;;
13866;SDS011;7003;46.982;15.248;2023-04-05T04:58:15;2.43;;;2.07;;
13866;SDS011;7003;46.982;15.248;2023-04-05T05:00:46;3.47;;;2.23;;
13866;SDS011;7003;46.982;15.248;2023-04-05T05:03:23;3.63;;;2.27;;
13866;SDS011;7003;46.982;15.248;2023-04-05T05:05:53;1.73;;;1.63;;
13866;SDS011;7003;46.982;15.248;2023-04-05T05:08:23;2.87;;;2.43;;
13866;SDS011;7003;46.982;15.248;2023-04-05T05:10:52;3.00;;;2.67;;
13866;SDS011;7003;46.982;15.248;2023-04-05T05:13:22;3.20;;;1.97;;
13866;SDS011;7003;46.982;15.248;2023-04-05T05:15:53;8.70;;;2.83;;
13866;SDS011;7003;46.982;15.248;2023-04-05T05:18:25;6.70;;;2.73;;
13866;SDS011;7003;46.982;15.248;2023-04-05T05:20:56;2.47;;;2.20;;
13866;SDS011;7003;46.982;15.248;2023-04-05T05:23:26;3.90;;;3.37;;
13866;SDS011;7003;46.982;15.248;2023-04-05T05:25:59;2.33;;;1.93;;
13866;SDS011;7003;46.982;15.248;2023-04-05T05:28:31;2.80;;;1.83;;
13866;SDS011;7003;46.982;15.248;2023-04-05T05:31:02;2.23;;;2.03;;
13866;SDS011;7003;46.982;15.248;2023-04-05T05:33:35;3.43;;;2.40;;
13866;SDS011;7003;46.982;15.248;2023-04-05T05:36:10;9.27;;;3.27;;
13866;SDS011;7003;46.982;15.248;2023-04-05T05:38:41;4.17;;;2.43;;
13866;SDS011;7003;46.982;15.248;2023-04-05T05:41:12;4.80;;;3.60;;
13866;SDS011;7003;46.982;15.248;2023-04-05T05:43:41;3.40;;;3.10;;
13866;SDS011;7003;46.982;15.248;2023-04-05T05:46:11;2.93;;;2.73;;
13866;SDS011;7003;46.982;15.248;2023-04-05T05:48:42;5.30;;;4.80;;
13866;SDS011;7003;46.982;15.248;2023-04-05T05:51:14;2.60;;;2.40;;
13866;SDS011;7003;46.982;15.248;2023-04-05T05:53:43;2.43;;;1.73;;
13866;SDS011;7003;46.982;15.248;2023-04-05T05:56:13;2.30;;;1.93;;
13866;SDS011;7003;46.982;15.248;2023-04-05T05:58:43;2.53;;;2.27;;
13866;SDS011;7003;46.982;15.248;2023-04-05T06:01:15;4.80;;;3.40;;
13866;SDS011;7003;46.982;15.248;2023-04-05T06:03:48;12.20;;;3.73;;
13866;SDS011;7003;46.982;15.248;2023-04-05T06:06:21;2.93;;;2.50;;
13866;SDS011;7003;46.982;15.248;2023-04-05T06:08:51;4.13;;;3.30;;
13866;SDS011;7003;46.982;15.248;2023-04-05T06:11:21;6.03;;;5.47;;
13866;SDS011;7003;46.982;15.248;2023-04-05T06:13:50;6.93;;;4.77;;
13866;SDS011;7003;46.982;15.248;2023-04-05T06:16:19;4.43;;;4.03;;
13866;SDS011;7003;46.982;15.248;2023-04-05T06:18:52;5.13;;;3.33;;
13866;SDS011;7003;46.982;15.248;2023-04-05T06:21:24;9.90;;;4.37;;
13866;SDS011;7003;46.982;15.248;2023-04-05T06:23:54;3.13;;;2.87;;
13866;SDS011;7003;46.982;15.248;2023-04-05T06:26:24;4.00;;;3.30;;
13866;SDS011;7003;46.982;15.248;2023-04-05T06:28:55;8.43;;;4.30;;
13866;SDS011;7003;46.982;15.248;2023-04-05T06:31:30;6.10;;;4.47;;
13866;SDS011;7003;46.982;15.248;2023-04-05T06:34:02;3.80;;;3.40;;
13866;SDS011;7003;46.982;15.248;2023-04-05T06:36:36;5.50;;;5.07;;
13866;SDS011;7003;46.982;15.248;2023-04-05T06:39:04;4.80;;;3.37;;
13866;SDS011;7003;46.982;15.248;2023-04-05T06:41:33;4.30;;;3.90;;
13866;SDS011;7003;46.982;15.248;2023-04-05T06:44:06;6.07;;;3.60;;
13866;SDS011;7003;46.982;15.248;2023-04-05T06:46:37;4.37;;;2.67;;
13866;SDS011;7003;46.982;15.248;2023-04-05T06:49:07;5.30;;;4.43;;
13866;SDS011;7003;46.982;15.248;2023-04-05T06:51:37;7.17;;;3.10;;
13866;SDS011;7003;46.982;15.248;2023-04-05T06:54:05;7.70;;;4.87;;
13866;SDS011;7003;46.982;15.248;2023-04-05T06:56:33;6.03;;;3.53;;
13866;SDS011;7003;46.982;15.248;2023-04-05T06:59:01;4.33;;;3.43;;
13866;SDS011;7003;46.982;15.248;2023-04-05T07:01:32;4.43;;;3.80;;
13866;SDS011;7003;46.982;15.248;2023-04-05T07:04:02;4.73;;;3.60;;
13866;SDS011;7003;46.982;15.248;2023-04-05T07:06:30;7.33;;;4.73;;
13866;SDS011;7003;46.982;15.248;2023-04-05T07:09:03;9.80;;;4.30;;
13866;SDS011;7003;46.982;15.248;2023-04-05T07:11:34;13.13;;;5.40;;
13866;SDS011;7003;46.982;15.248;2023-04-05T07:14:03;3.83;;;2.60;;
13866;SDS011;7003;46.982;15.248;2023-04-05T07:16:32;5.27;;;3.70;;
13866;SDS011;7003;46.982;15.248;2023-04-05T07:19:00;4.37;;;3.90;;
13866;SDS011;7003;46.982;15.248;2023-04-05T07:21:30;10.40;;;5.07;;
13866;SDS011;7003;46.982;15.248;2023-04-05T07:23:58;15.73;;;4.57;;
13866;SDS011;7003;46.982;15.248;2023-04-05T07:26:32;5.83;;;4.30;;
13866;SDS011;7003;46.982;15.248;2023-04-05T07:29:02;5.53;;;4.70;;
13866;SDS011;7003;46.982;15.248;2023-04-05T07:31:30;6.50;;;5.13;;
13866;SDS011;7003;46.982;15.248;2023-04-05T07:33:59;6.00;;;4.43;;
13866;SDS011;7003;46.982;15.248;2023-04-05T07:36:26;6.57;;;4.93;;
13866;SDS011;7003;46.982;15.248;2023-04-05T07:38:58;6.07;;;4.93;;
13866;SDS011;7003;46.982;15.248;2023-04-05T07:41:28;7.47;;;4.33;;
13866;SDS011;7003;46.982;15.248;2023-04-05T07:44:01;6.10;;;5.00;;
13866;SDS011;7003;46.982;15.248;2023-04-05T07:46:28;3.90;;;3.47;;
13866;SDS011;7003;46.982;15.248;2023-04-05T07:48:56;4.60;;;3.67;;
13866;SDS011;7003;46.982;15.248;2023-04-05T07:51:24;5.70;;;3.97;;
13866;SDS011;7003;46.982;15.248;2023-04-05T07:53:55;7.30;;;5.17;;
13866;SDS011;7003;46.982;15.248;2023-04-05T07:56:23;5.50;;;4.37;;
13866;SDS011;7003;46.982;15.248;2023-04-05T07:58:54;5.07;;;4.57;;
13866;SDS011;7003;46.982;15.248;2023-04-05T08:01:23;4.63;;;3.80;;
13866;SDS011;7003;46.982;15.248;2023-04-05T08:03:55;4.88;;;3.65;;
13866;SDS011;7003;46.982;15.248;2023-04-05T08:06:23;5.10;;;4.70;;
13866;SDS011;7003;46.982;15.248;2023-04-05T08:08:54;11.23;;;5.27;;
13866;SDS011;7003;46.982;15.248;2023-04-05T08:11:21;7.93;;;5.83;;
13866;SDS011;7003;46.982;15.248;2023-04-05T08:13:53;6.10;;;5.00;;
13866;SDS011;7003;46.982;15.248;2023-04-05T08:16:24;5.50;;;4.53;;
13866;SDS011;7003;46.982;15.248;2023-04-05T08:18:54;4.80;;;4.30;;
13866;SDS011;7003;46.982;15.248;2023-04-05T08:21:22;5.03;;;4.20;;
13866;SDS011;7003;46.982;15.248;2023-04-05T08:23:53;5.53;;;4.93;;
13866;SDS011;7003;46.982;15.248;2023-04-05T08:26:22;3.33;;;3.07;;
13866;SDS011;7003;46.982;15.248;2023-04-05T08:28:50;6.57;;;4.27;;
13866;SDS011;7003;46.982;15.248;2023-04-05T08:31:18;6.90;;;4.70;;
13866;SDS011;7003;46.982;15.248;2023-04-05T08:33:47;4.87;;;4.10;;
13866;SDS011;7003;46.982;15.248;2023-04-05T08:36:17;5.00;;;3.80;;
13866;SDS011;7003;46.982;15.248;2023-04-05T08:38:46;6.30;;;3.70;;
13866;SDS011;7003;46.982;15.248;2023-04-05T08:41:17;4.23;;;3.83;;
13866;SDS011;7003;46.982;15.248;2023-04-05T08:43:54;3.60;;;3.07;;
13866;SDS011;7003;46.982;15.248;2023-04-05T08:46:23;4.20;;;3.63;;
13866;SDS011;7003;46.982;15.248;2023-04-05T08:48:53;6.87;;;4.70;;
13866;SDS011;7003;46.982;15.248;2023-04-05T08:51:23;5.27;;;4.30;;
13866;SDS011;7003;46.982;15.248;2023-04-05T08:53:51;3.97;;;3.57;;
13866;SDS011;7003;46.982;15.248;2023-04-05T08:56:24;5.13;;;4.50;;
13866;SDS011;7003;46.982;15.248;2023-04-05T08:58:55;3.73;;;3.33;;
13866;SDS011;7003;46.982;15.248;2023-04-05T09:01:32;4.83;;;3.87;;
13866;SDS011;7003;46.982;15.248;2023-04-05T09:04:06;9.40;;;4.27;;
13866;SDS011;7003;46.982;15.248;2023-04-05T09:06:38;3.47;;;3.17;;
13866;SDS011;7003;46.982;15.248;2023-04-05T09:09:09;3.20;;;2.90;;
13866;SDS011;7003;46.982;15.248;2023-04-05T09:11:37;5.43;;;4.00;;
13866;SDS011;7003;46.982;15.248;2023-04-05T09:14:09;3.93;;;3.50;;
13866;SDS011;7003;46.982;15.248;2023-04-05T09:16:40;4.07;;;3.23;;
13866;SDS011;7003;46.982;15.248;2023-04-05T09:19:10;9.40;;;3.50;;
13866;SDS011;7003;46.982;15.248;2023-04-05T09:21:56;5.40;;;3.78;;
13866;SDS011;7003;46.982;15.248;2023-04-05T09:24:28;3.10;;;2.80;;
13866;SDS011;7003;46.982;15.248;2023-04-05T09:27:03;3.15;;;2.85;;
13866;SDS011;7003;46.982;15.248;2023-04-05T09:29:34;6.78;;;3.58;;
13866;SDS011;7003;46.982;15.248;2023-04-05T09:32:03;4.53;;;3.60;;
13866;SDS011;7003;46.982;15.248;2023-04-05T09:34:33;5.43;;;3.38;;
13866;SDS011;7003;46.982;15.248;2023-04-05T09:37:03;4.78;;;3.70;;
13866;SDS011;7003;46.982;15.248;2023-04-05T09:39:39;4.75;;;4.20;;
13866;SDS011;7003;46.982;15.248;2023-04-05T09:42:07;4.78;;;3.67;;
13866;SDS011;7003;46.982;15.248;2023-04-05T09:44:52;3.55;;;3.25;;
13866;SDS011;7003;46.982;15.248;2023-04-05T09:47:22;6.10;;;3.95;;
13866;SDS011;7003;46.982;15.248;2023-04-05T09:49:53;5.40;;;3.60;;
13866;SDS011;7003;46.982;15.248;2023-04-05T09:52:22;4.18;;;3.78;;
13866;SDS011;7003;46.982;15.248;2023-04-05T09:54:54;5.07;;;3.70;;
13866;SDS011;7003;46.982;15.248;2023-04-05T09:57:26;4.53;;;3.28;;
13866;SDS011;7003;46.982;15.248;2023-04-05T09:59:57;5.20;;;4.78;;
13866;SDS011;7003;46.982;15.248;2023-04-05T10:02:33;7.40;;;3.90;;
13866;SDS011;7003;46.982;15.248;2023-04-05T10:05:06;5.28;;;3.83;;
13866;SDS011;7003;46.982;15.248;2023-04-05T10:07:37;5.70;;;4.20;;
13866;SDS011;7003;46.982;15.248;2023-04-05T10:10:08;4.28;;;3.53;;
13866;SDS011;7003;46.982;15.248;2023-04-05T10:12:39;3.42;;;3.17;;
13866;SDS011;7003;46.982;15.248;2023-04-05T10:15:10;8.20;;;3.83;;
13866;SDS011;7003;46.982;15.248;2023-04-05T10:17:45;6.43;;;3.20;;
13866;SDS011;7003;46.982;15.248;2023-04-05T10:20:18;3.83;;;3.13;;
13866;SDS011;7003;46.982;15.248;2023-04-05T10:22:55;3.10;;;2.85;;
13866;SDS011;7003;46.982;15.248;2023-04-05T10:25:29;3.58;;;3.10;;
13866;SDS011;7003;46.982;15.248;2023-04-05T10:28:07;3.70;;;3.28;;
13866;SDS011;7003;46.982;15.248;2023-04-05T10:30:39;3.30;;;3.05;;
13866;SDS011;7003;46.982;15.248;2023-04-05T10:33:12;5.13;;;3.55;;
13866;SDS011;7003;46.982;15.248;2023-04-05T10:35:53;4.63;;;3.40;;
13866;SDS011;7003;46.982;15.248;2023-04-05T10:38:31;2.95;;;2.75;;
13866;SDS011;7003;46.982;15.248;2023-04-05T10:41:11;4.00;;;3.00;;
13866;SDS011;7003;46.982;15.248;2023-04-05T10:43:40;3.88;;;3.30;;
13866;SDS011;7003;46.982;15.248;2023-04-05T10:46:09;2.80;;;2.60;;
13866;SDS011;7003;46.982;15.248;2023-04-05T10:48:43;2.92;;;2.72;;
13866;SDS011;7003;46.982;15.248;2023-04-05T10:51:25;5.47;;;2.65;;
13866;SDS011;7003;46.982;15.248;2023-04-05T10:53:54;3.20;;;2.72;;
13866;SDS011;7003;46.982;15.248;2023-04-05T10:56:23;6.53;;;3.85;;
13866;SDS011;7003;46.982;15.248;2023-04-05T10:58:52;2.58;;;2.38;;
13866;SDS011;7003;46.982;15.248;2023-04-05T11:01:21;2.60;;;2.05;;
13866;SDS011;7003;46.982;15.248;2023-04-05T11:03:52;5.30;;;2.75;;
13866;SDS011;7003;46.982;15.248;2023-04-05T11:06:22;4.10;;;3.20;;
13866;SDS011;7003;46.982;15.248;2023-04-05T11:08:54;3.38;;;2.30;;
13866;SDS011;7003;46.982;15.248;2023-04-05T11:11:25;3.97;;;3.38;;
13866;SDS011;7003;46.982;15.248;2023-04-05T11:13:54;3.28;;;2.58;;
13866;SDS011;7003;46.982;15.248;2023-04-05T11:16:37;3.85;;;3.15;;
13866;SDS011;7003;46.982;15.248;2023-04-05T11:19:06;3.17;;;2.88;;
13866;SDS011;7003;46.982;15.248;2023-04-05T11:21:34;2.88;;;2.63;;
13866;SDS011;7003;46.982;15.248;2023-04-05T11:24:05;2.85;;;2.65;;
13866;SDS011;7003;46.982;15.248;2023-04-05T11:26:55;4.95;;;2.25;;
13866;SDS011;7003;46.982;15.248;2023-04-05T11:32:14;3.33;;;3.03;;
13866;SDS011;7003;46.982;15.248;2023-04-05T11:34:42;4.65;;;3.40;;
13866;SDS011;7003;46.982;15.248;2023-04-05T11:37:14;5.63;;;4.13;;
13866;SDS011;7003;46.982;15.248;2023-04-05T11:39:43;4.60;;;3.08;;
13866;SDS011;7003;46.982;15.248;2023-04-05T11:42:14;7.15;;;3.25;;
13866;SDS011;7003;46.982;15.248;2023-04-05T11:44:44;4.20;;;2.83;;
13866;SDS011;7003;46.982;15.248;2023-04-05T11:47:15;3.92;;;3.47;;
13866;SDS011;7003;46.982;15.248;2023-04-05T11:49:48;5.10;;;3.47;;
13866;SDS011;7003;46.982;15.248;2023-04-05T11:52:20;4.25;;;2.78;;
13866;SDS011;7003;46.982;15.248;2023-04-05T11:54:50;3.20;;;2.70;;
13866;SDS011;7003;46.982;15.248;2023-04-05T11:57:21;2.58;;;2.38;;
13866;SDS011;7003;46.982;15.248;2023-04-05T11:59:50;3.53;;;2.97;;
13866;SDS011;7003;46.982;15.248;2023-04-05T12:02:19;3.42;;;3.13;;
13866;SDS011;7003;46.982;15.248;2023-04-05T12:04:52;4.70;;;3.03;;
13866;SDS011;7003;46.982;15.248;2023-04-05T12:07:25;4.40;;;3.67;;
13866;SDS011;7003;46.982;15.248;2023-04-05T12:10:04;2.97;;;2.78;;
13866;SDS011;7003;46.982;15.248;2023-04-05T12:12:35;3.10;;;2.30;;
13866;SDS011;7003;46.982;15.248;2023-04-05T12:15:08;2.95;;;2.47;;
13866;SDS011;7003;46.982;15.248;2023-04-05T12:17:44;2.65;;;2.45;;
13866;SDS011;7003;46.982;15.248;2023-04-05T12:20:17;2.50;;;2.30;;
13866;SDS011;7003;46.982;15.248;2023-04-05T12:22:47;4.20;;;3.20;;
13866;SDS011;7003;46.982;15.248;2023-04-05T12:25:20;3.92;;;2.42;;
13866;SDS011;7003;46.982;15.248;2023-04-05T12:27:49;3.83;;;2.72;;
13866;SDS011;7003;46.982;15.248;2023-04-05T12:30:18;3.15;;;2.85;;
13866;SDS011;7003;46.982;15.248;2023-04-05T12:32:49;6.50;;;3.35;;
13866;SDS011;7003;46.982;15.248;2023-04-05T12:35:17;4.75;;;3.13;;
13866;SDS011;7003;46.982;15.248;2023-04-05T12:37:47;5.05;;;2.90;;
13866;SDS011;7003;46.982;15.248;2023-04-05T12:40:21;3.75;;;2.85;;
13866;SDS011;7003;46.982;15.248;2023-04-05T12:42:50;4.68;;;3.15;;
13866;SDS011;7003;46.982;15.248;2023-04-05T12:45:18;3.50;;;2.88;;
13866;SDS011;7003;46.982;15.248;2023-04-05T12:47:50;4.00;;;2.25;;
13866;SDS011;7003;46.982;15.248;2023-04-05T12:50:23;3.35;;;2.53;;
13866;SDS011;7003;46.982;15.248;2023-04-05T12:52:54;4.13;;;2.20;;
13866;SDS011;7003;46.982;15.248;2023-04-05T12:55:25;2.38;;;2.17;;
13866;SDS011;7003;46.982;15.248;2023-04-05T12:57:54;4.82;;;2.53;;
13866;SDS011;7003;46.982;15.248;2023-04-05T13:00:24;5.93;;;2.45;;
13866;SDS011;7003;46.982;15.248;2023-04-05T13:02:56;9.73;;;2.65;;
13866;SDS011;7003;46.982;15.248;2023-04-05T13:05:29;2.85;;;2.33;;
13866;SDS011;7003;46.982;15.248;2023-04-05T13:07:57;4.10;;;2.17;;
13866;SDS011;7003;46.982;15.248;2023-04-05T13:10:26;2.47;;;2.28;;
13866;SDS011;7003;46.982;15.248;2023-04-05T13:12:57;4.43;;;2.92;;
13866;SDS011;7003;46.982;15.248;2023-04-05T13:15:24;2.85;;;2.55;;
13866;SDS011;7003;46.982;15.248;2023-04-05T13:17:55;3.40;;;2.88;;
13866;SDS011;7003;46.982;15.248;2023-04-05T13:20:23;3.08;;;2.80;;
13866;SDS011;7003;46.982;15.248;2023-04-05T13:22:54;2.38;;;2.17;;
13866;SDS011;7003;46.982;15.248;2023-04-05T13:25:26;4.32;;;2.78;;
13866;SDS011;7003;46.982;15.248;2023-04-05T13:27:56;3.50;;;2.20;;
13866;SDS011;7003;46.982;15.248;2023-04-05T13:30:27;4.47;;;2.20;;
13866;SDS011;7003;46.982;15.248;2023-04-05T13:33:02;8.00;;;3.42;;
13866;SDS011;7003;46.982;15.248;2023-04-05T13:35:33;3.05;;;2.30;;
13866;SDS011;7003;46.982;15.248;2023-04-05T13:38:04;3.20;;;2.80;;
13866;SDS011;7003;46.982;15.248;2023-04-05T13:40:33;6.40;;;2.30;;
13866;SDS011;7003;46.982;15.248;2023-04-05T13:43:01;7.18;;;2.22;;
13866;SDS011;7003;46.982;15.248;2023-04-05T13:45:29;3.08;;;1.95;;
13866;SDS011;7003;46.982;15.248;2023-04-05T13:47:58;2.50;;;2.30;;
13866;SDS011;7003;46.982;15.248;2023-04-05T13:50:30;2.17;;;1.90;;
13866;SDS011;7003;46.982;15.248;2023-04-05T13:53:00;3.55;;;2.08;;
13866;SDS011;7003;46.982;15.248;2023-04-05T13:55:29;9.43;;;2.60;;
13866;SDS011;7003;46.982;15.248;2023-04-05T13:57:59;2.95;;;2.47;;
13866;SDS011;7003;46.982;15.248;2023-04-05T14:00:27;2.40;;;2.00;;
13866;SDS011;7003;46.982;15.248;2023-04-05T14:02:55;3.72;;;2.70;;
13866;SDS011;7003;46.982;15.248;2023-04-05T14:05:23;2.17;;;1.98;;
13866;SDS011;7003;46.982;15.248;2023-04-05T14:08:10;2.50;;;2.20;;
13866;SDS011;7003;46.982;15.248;2023-04-05T14:10:56;2.45;;;2.05;;
13866;SDS011;7003;46.982;15.248;2023-04-05T14:13:45;3.20;;;2.17;;
13866;SDS011;7003;46.982;15.248;2023-04-05T14:16:31;2.38;;;2.17;;
13866;SDS011;7003;46.982;15.248;2023-04-05T14:19:18;3.00;;;2.78;;
13866;SDS011;7003;46.982;15.248;2023-04-05T14:22:04;3.75;;;2.30;;
13866;SDS011;7003;46.982;15.248;2023-04-05T14:24:51;2.65;;;2.08;;
13866;SDS011;7003;46.982;15.248;2023-04-05T14:27:37;3.25;;;2.83;;
13866;SDS011;7003;46.982;15.248;2023-04-05T14:30:26;2.22;;;2.03;;
13866;SDS011;7003;46.982;15.248;2023-04-05T14:33:13;3.13;;;2.28;;
13866;SDS011;7003;46.982;15.248;2023-04-05T14:36:00;2.10;;;1.90;;
13866;SDS011;7003;46.982;15.248;2023-04-05T14:38:29;2.33;;;2.13;;
13866;SDS011;7003;46.982;15.248;2023-04-05T14:41:00;2.92;;;2.15;;
13866;SDS011;7003;46.982;15.248;2023-04-05T14:43:31;2.17;;;1.65;;
13866;SDS011;7003;46.982;15.248;2023-04-05T14:46:02;2.42;;;2.22;;
13866;SDS011;7003;46.982;15.248;2023-04-05T14:48:49;3.58;;;2.00;;
13866;SDS011;7003;46.982;15.248;2023-04-05T14:51:37;2.97;;;1.98;;
13866;SDS011;7003;46.982;15.248;2023-04-05T14:54:25;3.08;;;2.05;;
13866;SDS011;7003;46.982;15.248;2023-04-05T14:56:53;3.03;;;2.63;;
13866;SDS011;7003;46.982;15.248;2023-04-05T14:59:23;3.10;;;2.72;;
13866;SDS011;7003;46.982;15.248;2023-04-05T15:01:53;2.63;;;2.03;;
13866;SDS011;7003;46.982;15.248;2023-04-05T15:04:21;1.55;;;1.45;;
13866;SDS011;7003;46.982;15.248;2023-04-05T15:06:49;1.88;;;1.75;;
13866;SDS011;7003;46.982;15.248;2023-04-05T15:09:17;2.55;;;2.35;;
13866;SDS011;7003;46.982;15.248;2023-04-05T15:11:48;2.38;;;2.20;;
13866;SDS011;7003;46.982;15.248;2023-04-05T15:14:19;4.05;;;2.58;;
13866;SDS011;7003;46.982;15.248;2023-04-05T15:16:47;2.58;;;2.35;;
13866;SDS011;7003;46.982;15.248;2023-04-05T15:19:17;2.75;;;2.50;;